CheckWX is a tool to help pilots better visualize weather data.  It is not intended as a substitute for an official pre-flight weather briefing.

21:36:34 UTC

KDMN METAR
Deming Municipal Airport
Deming, New Mexico, USA
Current

44 mins ago

KDMN 232053Z AUTO 28016G25KT 10SM CLR 24/M04 A2997 RMK AO2 PK WND 26032/2006 SLP083 T02391044 56009
Observed
May-23 @ 20:53 UTC
Wind
  • 280° at 16 KTS
  • Gusting to 25 KTS
Visibility
10 SM
Flight Rules
VFR
Cloud Levels
  • Clear skies
Temperature
24°C / 75°F
Dewpoint
-4°C / 25°F
Humidity
15%
Altimeter
29.97" Hg
Pressure
1014.92 hPa
Previous

2 hours ago

KDMN 231953Z AUTO 26016G30KT 10SM CLR 23/M03 A2998 RMK AO2 PK WND 23032/1931 SLP092 T02331028
Observed
May-23 @ 19:53 UTC
Wind
  • 260° at 16 KTS
  • Gusting to 30 KTS
Visibility
10 SM
Flight Rules
VFR
Cloud Levels
  • Clear skies
Temperature
23°C / 73°F
Dewpoint
-3°C / 27°F
Humidity
17%
Altimeter
29.98" Hg
Pressure
1015.22 hPa
Previous

3 hours ago

KDMN 231853Z AUTO 24018G27KT 10SM SCT090 23/M01 A2999 RMK AO2 PK WND 24032/1838 SLP095 T02281006
Observed
May-23 @ 18:53 UTC
Wind
  • 240° at 18 KTS
  • Gusting to 27 KTS
Visibility
10 SM
Flight Rules
VFR
Cloud Levels
  • Scattered at 9,000' AGL
Temperature
23°C / 73°F
Dewpoint
-1°C / 30°F
Humidity
20%
Altimeter
29.99" Hg
Pressure
1015.62 hPa